Time;durP1;ratioP1;P1;durP2;ratioP2;P2;SDS_P1;SDS_P2;PMS_P1;PMS_P2;Temp;Humidity;BMP_temperature;BMP_pressure;BME280_temperature;BME280_humidity;BME280_pressure;Samples;Min_cycle;Max_cycle;Signal;HPM_P1;HPM_P2
2022/05/14 00:01:29;;;;;;;4.68;0.98;;;12.00;99.90;;;;;;4984273;28;20041;-71
2022/05/14 00:03:55;;;;;;;3.88;1.17;;;12.00;99.90;;;;;;4982254;28;20113;-71
2022/05/14 00:06:23;;;;;;;7.13;1.70;;;12.00;99.90;;;;;;4978730;28;20067;-71
2022/05/14 00:08:50;;;;;;;6.05;1.42;;;11.90;99.90;;;;;;4979700;28;20315;-71
2022/05/14 00:14:03;;;;;;;8.05;1.10;;;11.90;99.90;;;;;;4978473;28;20050;-71
2022/05/14 00:16:31;;;;;;;8.07;1.55;;;11.90;99.90;;;;;;4981228;28;20177;-71
2022/05/14 00:18:58;;;;;;;13.52;1.95;;;11.90;99.90;;;;;;4978830;28;20049;-71
2022/05/14 00:21:23;;;;;;;5.65;1.83;;;11.90;99.90;;;;;;4978504;28;20042;-70
2022/05/14 00:23:49;;;;;;;8.52;1.20;;;11.80;99.90;;;;;;4981052;28;20022;-71
2022/05/14 00:26:16;;;;;;;10.65;1.77;;;11.80;99.90;;;;;;4981837;28;20031;-71
2022/05/14 00:28:42;;;;;;;7.13;1.65;;;11.70;99.90;;;;;;4972375;28;20035;-71
2022/05/14 00:31:09;;;;;;;16.30;1.85;;;11.80;99.90;;;;;;4980898;28;20030;-71
2022/05/14 00:33:35;;;;;;;8.32;1.17;;;11.70;99.90;;;;;;4981053;28;20034;-71
2022/05/14 00:36:00;;;;;;;5.25;1.20;;;11.70;99.90;;;;;;4979299;28;20406;-71
2022/05/14 00:38:26;;;;;;;9.00;1.70;;;11.70;99.90;;;;;;4979079;28;20509;-71
2022/05/14 00:40:58;;;;;;;12.38;1.95;;;11.60;99.90;;;;;;4980133;28;20050;-71
2022/05/14 00:43:25;;;;;;;10.05;1.90;;;11.70;99.90;;;;;;4978526;28;20038;-71
2022/05/14 00:45:58;;;;;;;13.07;1.42;;;11.70;99.90;;;;;;4980493;28;20037;-72
2022/05/14 00:48:26;;;;;;;6.60;1.38;;;11.60;99.90;;;;;;4979465;28;20034;-71
2022/05/14 00:50:56;;;;;;;13.70;2.60;;;11.60;99.90;;;;;;4978462;28;20033;-72
2022/05/14 00:53:30;;;;;;;7.07;1.30;;;11.60;99.90;;;;;;4978332;28;20051;-71
2022/05/14 00:56:01;;;;;;;5.78;1.50;;;11.60;99.90;;;;;;4984213;28;20035;-71
2022/05/14 00:58:53;;;;;;;16.75;1.80;;;11.60;99.90;;;;;;4983845;28;20031;-71
2022/05/14 01:01:19;;;;;;;9.48;2.35;;;11.60;99.90;;;;;;4977593;28;20039;-71
2022/05/14 01:03:44;;;;;;;9.18;2.22;;;11.60;99.90;;;;;;4985107;28;20031;-72
2022/05/14 01:06:14;;;;;;;7.85;2.05;;;11.50;99.90;;;;;;4982777;28;20039;-71
2022/05/14 01:08:41;;;;;;;10.18;1.80;;;11.60;99.90;;;;;;4986732;28;20174;-71
2022/05/14 01:11:07;;;;;;;10.13;2.10;;;11.50;99.90;;;;;;4987634;28;20041;-71
2022/05/14 01:13:33;;;;;;;5.30;1.70;;;11.50;99.90;;;;;;4982299;28;20081;-71
2022/05/14 01:16:02;;;;;;;12.43;2.10;;;11.50;99.90;;;;;;4984400;28;20031;-71
2022/05/14 01:18:31;;;;;;;11.20;2.20;;;11.50;99.90;;;;;;4986290;28;20027;-71
2022/05/14 01:21:13;;;;;;;6.55;1.90;;;11.50;99.90;;;;;;4987589;28;20039;-72
2022/05/14 01:26:29;;;;;;;8.40;1.42;;;11.40;99.90;;;;;;4984861;28;20122;-71
2022/05/14 01:29:01;;;;;;;15.25;2.28;;;11.40;99.90;;;;;;4983609;28;20039;-71
2022/05/14 01:31:29;;;;;;;8.38;2.20;;;11.40;99.90;;;;;;4982352;28;20041;-71
2022/05/14 01:33:58;;;;;;;11.80;1.77;;;11.40;99.90;;;;;;4982580;28;20035;-72
2022/05/14 01:36:24;;;;;;;13.88;1.88;;;11.30;99.90;;;;;;4983276;28;20065;-71
2022/05/14 01:38:50;;;;;;;8.57;2.63;;;11.30;99.90;;;;;;4981957;28;20061;-71
2022/05/14 01:41:15;;;;;;;12.98;2.10;;;11.30;99.90;;;;;;4982987;28;20038;-70
2022/05/14 01:43:41;;;;;;;9.23;2.92;;;11.30;99.90;;;;;;4980861;28;20031;-71
2022/05/14 01:46:08;;;;;;;6.00;2.00;;;11.20;99.90;;;;;;4984326;28;20061;-71
2022/05/14 01:48:33;;;;;;;12.25;2.50;;;11.20;99.90;;;;;;4981415;28;20039;-71
2022/05/14 01:50:59;;;;;;;10.48;2.58;;;11.20;99.90;;;;;;4983493;28;20041;-71
2022/05/14 01:53:25;;;;;;;7.68;2.25;;;11.20;99.90;;;;;;4981910;28;20061;-71
2022/05/14 01:55:51;;;;;;;10.57;1.80;;;11.20;99.90;;;;;;4982111;28;20186;-71
2022/05/14 02:01:01;;;;;;;9.52;2.80;;;11.10;99.90;;;;;;4983334;28;20400;-72
2022/05/14 02:03:26;;;;;;;12.90;2.92;;;11.10;99.90;;;;;;4981846;28;20038;-70
2022/05/14 02:05:52;;;;;;;13.60;2.92;;;11.10;99.90;;;;;;4979815;28;20031;-71
2022/05/14 02:08:17;;;;;;;10.40;2.42;;;11.10;99.90;;;;;;4982420;28;20027;-71
2022/05/14 02:10:43;;;;;;;9.43;2.20;;;11.00;99.90;;;;;;4983779;28;20042;-71
2022/05/14 02:13:10;;;;;;;10.65;2.85;;;11.00;99.90;;;;;;4980793;28;20027;-71
2022/05/14 02:15:37;;;;;;;6.00;1.75;;;10.90;99.90;;;;;;4975680;28;20551;-71
2022/05/14 02:18:02;;;;;;;16.17;3.33;;;11.00;99.90;;;;;;4982646;28;20038;-71
2022/05/14 02:20:28;;;;;;;6.38;2.15;;;10.90;99.90;;;;;;4981223;28;20399;-71
2022/05/14 02:22:54;;;;;;;9.98;2.67;;;10.90;99.90;;;;;;4981773;28;20051;-71
2022/05/14 02:25:20;;;;;;;8.68;2.67;;;10.90;99.90;;;;;;4984755;28;20041;-71
2022/05/14 02:27:46;;;;;;;13.95;3.42;;;10.90;99.90;;;;;;4981336;28;20045;-71
2022/05/14 02:30:12;;;;;;;7.65;2.60;;;10.80;99.90;;;;;;4983899;28;20061;-71
2022/05/14 02:32:38;;;;;;;10.30;2.92;;;10.80;99.90;;;;;;4980331;28;20043;-71
2022/05/14 02:35:05;;;;;;;9.60;3.22;;;10.80;99.90;;;;;;4983139;28;20509;-71
2022/05/14 02:37:30;;;;;;;14.02;3.30;;;10.80;99.90;;;;;;4981054;28;20077;-72
2022/05/14 02:39:56;;;;;;;10.60;3.03;;;10.80;99.90;;;;;;4982975;28;20058;-71
2022/05/14 02:42:22;;;;;;;11.10;3.25;;;10.80;99.90;;;;;;4981842;28;20045;-70
2022/05/14 02:44:48;;;;;;;14.10;3.28;;;10.70;99.90;;;;;;4980357;28;20035;-72
2022/05/14 02:47:14;;;;;;;12.48;3.75;;;10.70;99.90;;;;;;4983207;28;20045;-71
2022/05/14 02:49:40;;;;;;;12.93;3.75;;;10.70;99.90;;;;;;4980157;28;20066;-71
2022/05/14 02:52:06;;;;;;;8.93;2.97;;;10.70;99.90;;;;;;4983503;28;20066;-71
2022/05/14 02:54:32;;;;;;;12.55;3.00;;;10.70;99.90;;;;;;4978454;28;20058;-71
2022/05/14 02:56:58;;;;;;;9.30;3.90;;;10.70;99.90;;;;;;4982963;28;20096;-72
2022/05/14 02:59:23;;;;;;;11.07;2.55;;;10.70;99.90;;;;;;4981447;28;20038;-71
2022/05/14 03:01:49;;;;;;;11.63;3.33;;;10.70;99.90;;;;;;4981099;28;20046;-71
2022/05/14 03:04:17;;;;;;;14.73;3.38;;;10.60;99.90;;;;;;4982144;28;20129;-71
2022/05/14 03:06:42;;;;;;;16.15;3.65;;;10.60;99.90;;;;;;4982394;28;20411;-72
2022/05/14 03:09:08;;;;;;;9.40;3.05;;;10.60;99.90;;;;;;4979967;28;20031;-71
2022/05/14 03:11:34;;;;;;;20.65;3.92;;;10.60;99.90;;;;;;4982802;28;20030;-71
2022/05/14 03:13:59;;;;;;;10.52;3.40;;;10.60;99.90;;;;;;4978191;28;20450;-71
2022/05/14 03:16:25;;;;;;;16.17;3.45;;;10.60;99.90;;;;;;4982237;28;20035;-71
2022/05/14 03:18:50;;;;;;;12.05;3.58;;;10.60;99.90;;;;;;4979819;28;20088;-71
2022/05/14 03:21:16;;;;;;;9.98;2.97;;;10.60;99.90;;;;;;4979383;28;20674;-71
2022/05/14 03:23:41;;;;;;;10.60;3.60;;;10.60;99.90;;;;;;4981806;28;20411;-71
2022/05/14 03:26:07;;;;;;;14.40;3.05;;;10.60;99.90;;;;;;4983532;28;20050;-71
2022/05/14 03:28:32;;;;;;;14.43;3.10;;;10.60;99.90;;;;;;4978974;28;20045;-71
2022/05/14 03:30:59;;;;;;;17.80;3.33;;;10.60;99.90;;;;;;4982022;28;20045;-71
2022/05/14 03:33:25;;;;;;;16.77;4.43;;;10.60;99.90;;;;;;4977787;28;20027;-71
2022/05/14 03:35:50;;;;;;;12.70;3.60;;;10.60;99.90;;;;;;4981230;28;20034;-72
2022/05/14 03:38:16;;;;;;;19.38;3.97;;;10.60;99.90;;;;;;4981669;28;20037;-71
2022/05/14 03:40:42;;;;;;;17.20;4.15;;;10.60;99.90;;;;;;4978267;28;20781;-71
2022/05/14 03:43:07;;;;;;;11.52;3.28;;;10.60;99.90;;;;;;4981825;28;20034;-71
2022/05/14 03:45:33;;;;;;;11.70;3.90;;;10.60;99.90;;;;;;4977838;28;20031;-71
2022/05/14 03:47:58;;;;;;;15.38;3.35;;;10.60;99.90;;;;;;4982242;28;20037;-71
2022/05/14 03:50:24;;;;;;;13.40;4.07;;;10.60;99.90;;;;;;4978260;28;20038;-71
2022/05/14 03:52:49;;;;;;;21.35;4.60;;;10.50;99.90;;;;;;4980867;28;20557;-71
2022/05/14 03:55:15;;;;;;;14.35;4.60;;;10.50;99.90;;;;;;4981247;28;20105;-71
2022/05/14 03:57:41;;;;;;;15.77;4.07;;;10.50;99.90;;;;;;4980023;28;20513;-72
2022/05/14 04:00:08;;;;;;;13.95;4.05;;;10.60;99.90;;;;;;4981532;28;20038;-71
2022/05/14 04:02:34;;;;;;;19.42;4.72;;;10.60;99.90;;;;;;4977686;28;20125;-71
2022/05/14 04:05:00;;;;;;;21.00;5.00;;;10.60;99.90;;;;;;4982062;28;20026;-71
2022/05/14 04:07:25;;;;;;;18.60;4.38;;;10.60;99.90;;;;;;4982103;28;20080;-71
2022/05/14 04:09:51;;;;;;;14.45;4.18;;;10.60;99.90;;;;;;4979088;28;20034;-72
2022/05/14 04:12:17;;;;;;;16.60;5.10;;;10.60;99.90;;;;;;4979949;28;20043;-71
2022/05/14 04:14:43;;;;;;;14.40;4.28;;;10.70;99.90;;;;;;4980918;28;20096;-70
2022/05/14 04:17:09;;;;;;;21.17;4.88;;;10.70;99.90;;;;;;4978997;28;20505;-71
2022/05/14 04:19:34;;;;;;;23.98;4.80;;;10.70;99.90;;;;;;4979556;28;20042;-71
2022/05/14 04:22:00;;;;;;;11.38;4.45;;;10.70;99.90;;;;;;4978157;28;20058;-71
2022/05/14 04:24:27;;;;;;;17.98;4.93;;;10.70;99.90;;;;;;4981073;28;20173;-71
2022/05/14 04:26:53;;;;;;;18.23;4.35;;;10.70;99.90;;;;;;4980711;28;20042;-71
2022/05/14 04:29:19;;;;;;;14.73;5.38;;;10.70;99.90;;;;;;4978019;28;20030;-71
2022/05/14 04:31:45;;;;;;;19.00;4.57;;;10.70;99.90;;;;;;4980061;28;20407;-70
2022/05/14 04:34:11;;;;;;;18.15;4.95;;;10.70;99.90;;;;;;4980396;28;20042;-71
2022/05/14 04:36:37;;;;;;;14.80;4.97;;;10.70;99.90;;;;;;4977719;28;20041;-71
2022/05/14 04:39:03;;;;;;;22.75;5.50;;;10.70;99.90;;;;;;4981878;28;20039;-71
2022/05/14 04:41:30;;;;;;;17.40;4.95;;;10.80;99.90;;;;;;4978599;28;20034;-72
2022/05/14 04:43:58;;;;;;;14.38;5.20;;;10.80;99.90;;;;;;4981022;28;20039;-71
2022/05/14 04:46:24;;;;;;;14.45;5.03;;;10.90;99.90;;;;;;4978537;28;20066;-71
2022/05/14 04:48:49;;;;;;;13.75;4.57;;;11.00;99.90;;;;;;4980448;28;20062;-71
2022/05/14 04:51:15;;;;;;;17.38;5.07;;;11.20;99.90;;;;;;4980075;28;20042;-71
2022/05/14 04:53:40;;;;;;;20.20;6.05;;;11.30;99.90;;;;;;4978842;28;20058;-71
2022/05/14 04:56:06;;;;;;;13.15;5.25;;;11.30;99.90;;;;;;4980480;28;20065;-71
2022/05/14 04:58:32;;;;;;;17.17;4.85;;;11.40;99.90;;;;;;4977886;28;20503;-71
2022/05/14 05:00:57;;;;;;;15.48;4.55;;;11.50;99.90;;;;;;4979347;28;20561;-71
2022/05/14 05:03:24;;;;;;;21.33;6.00;;;11.60;99.90;;;;;;4976306;28;20454;-71
2022/05/14 05:05:58;;;;;;;16.10;4.43;;;11.60;99.90;;;;;;4978755;28;20063;-72
2022/05/14 05:08:26;;;;;;;18.90;6.13;;;11.70;99.90;;;;;;4981936;28;20058;-72
2022/05/14 05:10:52;;;;;;;18.38;6.10;;;11.80;99.90;;;;;;4978493;28;20030;-71
2022/05/14 05:13:21;;;;;;;18.40;5.80;;;11.90;99.90;;;;;;4978435;28;20060;-71
2022/05/14 05:15:47;;;;;;;15.00;4.82;;;12.00;99.90;;;;;;4979423;28;20511;-70
2022/05/14 05:18:13;;;;;;;19.02;5.38;;;12.10;99.90;;;;;;4979319;28;20038;-71
2022/05/14 05:20:42;;;;;;;16.75;5.95;;;12.30;99.90;;;;;;4977353;28;20403;-71
2022/05/14 05:23:11;;;;;;;13.50;5.13;;;12.40;99.90;;;;;;4979963;28;20041;-71
2022/05/14 05:25:37;;;;;;;23.03;5.00;;;12.50;99.90;;;;;;4981427;28;20034;-71
2022/05/14 05:28:03;;;;;;;18.58;5.53;;;12.60;99.90;;;;;;4982173;28;20034;-71
2022/05/14 05:30:29;;;;;;;18.33;5.30;;;12.60;99.90;;;;;;4977665;28;20035;-71
2022/05/14 05:32:55;;;;;;;22.02;5.32;;;12.70;99.90;;;;;;4973235;28;20042;-71
2022/05/14 05:35:21;;;;;;;21.65;5.55;;;12.70;99.90;;;;;;4979201;28;20059;-71
2022/05/14 05:37:47;;;;;;;14.60;4.63;;;12.80;99.90;;;;;;4986989;28;20435;-71
2022/05/14 05:40:14;;;;;;;23.08;5.57;;;13.00;99.90;;;;;;4985609;28;20030;-71
2022/05/14 05:42:40;;;;;;;16.08;5.18;;;13.10;99.90;;;;;;4987233;28;20075;-71
2022/05/14 05:45:07;;;;;;;17.58;5.82;;;13.30;99.90;;;;;;4989320;28;20062;-72
2022/05/14 05:47:32;;;;;;;12.98;4.43;;;13.30;99.90;;;;;;4988201;28;20044;-73
2022/05/14 05:49:58;;;;;;;19.02;5.53;;;13.40;99.90;;;;;;4986990;28;20094;-71
2022/05/14 05:52:24;;;;;;;13.13;4.93;;;13.50;99.90;;;;;;4990358;28;20034;-70
2022/05/14 05:57:37;;;;;;;13.50;3.58;;;14.90;99.90;;;;;;4990719;28;20049;-72
2022/05/14 06:00:14;;;;;;;10.23;3.60;;;16.10;99.90;;;;;;4985861;28;20582;-72
2022/05/14 06:02:40;;;;;;;12.10;4.10;;;16.80;99.90;;;;;;4980254;28;20039;-72
2022/05/14 06:05:06;;;;;;;11.57;3.63;;;17.00;99.90;;;;;;4981703;28;20050;-71
2022/05/14 06:07:36;;;;;;;13.93;4.00;;;17.50;99.90;;;;;;4983451;28;20038;-70
2022/05/14 06:10:04;;;;;;;10.27;3.70;;;17.60;99.90;;;;;;4979873;28;20027;-72
2022/05/14 06:12:30;;;;;;;25.58;4.15;;;18.10;99.90;;;;;;4982054;28;20034;-72
2022/05/14 06:14:55;;;;;;;19.90;3.83;;;19.20;99.90;;;;;;4978524;28;20045;-73
2022/05/14 06:17:21;;;;;;;13.75;4.03;;;20.30;99.90;;;;;;4981969;28;20030;-72
2022/05/14 06:19:47;;;;;;;13.23;3.42;;;21.10;99.90;;;;;;4981468;28;20494;-72
2022/05/14 06:22:12;;;;;;;11.18;3.58;;;21.60;99.90;;;;;;4978994;28;20459;-72
2022/05/14 06:24:38;;;;;;;8.27;2.85;;;21.80;99.90;;;;;;4978968;28;20681;-72
2022/05/14 06:27:04;;;;;;;8.18;3.08;;;21.70;99.90;;;;;;4977137;28;20113;-72
2022/05/14 06:29:31;;;;;;;11.00;2.83;;;22.00;99.90;;;;;;4979961;28;20034;-72
2022/05/14 06:31:57;;;;;;;12.05;3.33;;;22.50;99.90;;;;;;4976363;28;20513;-72
2022/05/14 06:34:23;;;;;;;9.65;3.47;;;22.90;99.20;;;;;;4981273;28;20043;-72
2022/05/14 06:36:52;;;;;;;12.18;3.53;;;23.80;97.80;;;;;;4981259;28;20030;-72
2022/05/14 06:39:19;;;;;;;11.45;3.05;;;23.90;96.60;;;;;;4978574;28;20037;-71
2022/05/14 06:41:45;;;;;;;15.70;4.07;;;24.70;95.10;;;;;;4980569;28;20070;-72
2022/05/14 06:44:10;;;;;;;12.65;4.07;;;25.10;93.90;;;;;;4976966;28;20058;-73
2022/05/14 06:46:36;;;;;;;13.35;3.53;;;25.80;93.50;;;;;;4979498;28;20042;-72
2022/05/14 06:49:03;;;;;;;14.13;4.13;;;26.30;91.70;;;;;;4977428;28;20383;-72
2022/05/14 06:51:31;;;;;;;11.45;4.25;;;26.70;91.30;;;;;;4978755;28;20113;-72
2022/05/14 06:54:00;;;;;;;13.35;4.20;;;26.40;90.00;;;;;;4977439;28;20122;-72
2022/05/14 06:56:28;;;;;;;11.07;4.38;;;25.70;90.10;;;;;;4980674;28;20042;-72
2022/05/14 06:58:55;;;;;;;14.85;4.18;;;25.00;91.30;;;;;;4977896;28;20031;-72
2022/05/14 07:01:21;;;;;;;12.77;3.63;;;24.60;91.30;;;;;;4973405;28;20126;-71
2022/05/14 07:06:38;;;;;;;10.93;3.67;;;24.10;91.60;;;;;;4976614;28;20030;-72
2022/05/14 07:09:06;;;;;;;11.20;3.60;;;24.40;91.70;;;;;;4979617;28;20042;-72
2022/05/14 07:11:34;;;;;;;9.27;3.83;;;24.80;90.90;;;;;;4976819;28;20071;-72
2022/05/14 07:14:00;;;;;;;11.48;3.85;;;25.30;89.70;;;;;;4979820;28;20042;-72
2022/05/14 07:16:26;;;;;;;10.85;3.45;;;25.40;88.20;;;;;;4977623;28;20034;-72
2022/05/14 07:18:51;;;;;;;9.63;3.30;;;25.50;88.60;;;;;;4981000;28;20434;-72
2022/05/14 07:21:17;;;;;;;12.90;4.47;;;25.80;88.20;;;;;;4977585;28;20061;-71
2022/05/14 07:23:42;;;;;;;14.52;3.50;;;26.40;87.70;;;;;;4979188;28;20392;-72
2022/05/14 07:26:08;;;;;;;15.55;4.20;;;27.10;86.00;;;;;;4980147;28;20035;-71
2022/05/14 07:28:34;;;;;;;12.27;3.33;;;27.40;82.60;;;;;;4979093;28;20022;-72
2022/05/14 07:31:01;;;;;;;16.98;3.65;;;27.50;81.40;;;;;;4976617;28;20077;-72
2022/05/14 07:33:28;;;;;;;10.88;3.38;;;27.80;78.30;;;;;;4979710;28;20054;-72
2022/05/14 07:35:57;;;;;;;14.40;3.75;;;27.80;77.70;;;;;;4976878;28;20053;-72
2022/05/14 07:38:23;;;;;;;9.88;3.42;;;27.60;75.50;;;;;;4980089;28;20483;-72
2022/05/14 07:40:49;;;;;;;15.77;4.03;;;26.80;74.80;;;;;;4976168;28;20031;-72
2022/05/14 07:43:20;;;;;;;9.63;3.45;;;26.10;76.70;;;;;;4976939;28;20518;-72
2022/05/14 07:45:52;;;;;;;12.40;3.40;;;25.70;77.10;;;;;;4980859;28;20470;-72
2022/05/14 07:48:22;;;;;;;14.68;4.00;;;25.70;78.50;;;;;;4973476;28;20630;-72
2022/05/14 07:50:48;;;;;;;12.60;2.83;;;25.30;79.40;;;;;;4973161;28;20035;-72
2022/05/14 07:53:17;;;;;;;15.00;2.97;;;25.10;78.80;;;;;;4979655;28;20053;-72
2022/05/14 07:55:43;;;;;;;9.50;2.55;;;24.30;78.40;;;;;;4977808;28;20057;-72
2022/05/14 07:58:09;;;;;;;8.40;2.40;;;24.00;77.80;;;;;;4979371;28;20117;-72
2022/05/14 08:00:35;;;;;;;12.38;3.10;;;23.80;79.70;;;;;;4976217;28;20035;-71
2022/05/14 08:03:01;;;;;;;15.13;2.83;;;23.30;80.20;;;;;;4975569;28;20035;-71
2022/05/14 08:05:27;;;;;;;12.45;2.47;;;23.10;82.20;;;;;;4976983;28;20065;-72
2022/05/14 08:07:52;;;;;;;12.05;2.50;;;22.80;83.40;;;;;;4980457;28;20062;-72
2022/05/14 08:10:18;;;;;;;11.32;2.35;;;22.80;81.90;;;;;;4981257;28;20096;-71
2022/05/14 08:12:48;;;;;;;9.35;2.13;;;22.50;81.40;;;;;;4977453;28;20042;-72
2022/05/14 08:15:15;;;;;;;16.87;2.43;;;22.40;81.10;;;;;;4979412;28;20042;-72
2022/05/14 08:17:41;;;;;;;12.35;2.28;;;22.10;82.20;;;;;;4977767;28;20423;-72
2022/05/14 08:20:07;;;;;;;14.95;2.78;;;22.00;82.70;;;;;;4979472;28;20431;-72
2022/05/14 08:25:17;;;;;;;13.15;2.58;;;21.90;83.70;;;;;;4977919;28;20056;-71
2022/05/14 08:27:47;;;;;;;19.33;2.63;;;21.90;84.20;;;;;;4977353;28;20434;-72
2022/05/14 08:30:12;;;;;;;8.82;1.55;;;21.80;83.50;;;;;;4979873;28;20091;-72
2022/05/14 08:32:38;;;;;;;10.95;2.10;;;21.60;83.10;;;;;;4977567;28;20554;-72
2022/05/14 08:35:04;;;;;;;13.23;2.35;;;21.60;82.10;;;;;;4979382;28;20073;-72
2022/05/14 08:37:29;;;;;;;8.63;1.75;;;21.60;81.90;;;;;;4979154;28;20030;-72
2022/05/14 08:39:55;;;;;;;13.00;2.35;;;21.50;82.30;;;;;;4977266;28;20035;-71
2022/05/14 08:42:21;;;;;;;18.77;2.70;;;21.40;81.60;;;;;;4974102;28;20073;-71
2022/05/14 08:44:47;;;;;;;16.10;2.58;;;21.40;81.90;;;;;;4984040;28;20038;-71
2022/05/14 08:47:36;;;;;;;14.32;2.08;;;21.50;83.90;;;;;;4971742;28;20066;-71
2022/05/14 08:50:04;;;;;;;8.55;2.33;;;21.60;81.20;;;;;;4977375;28;20093;-71
2022/05/14 08:52:30;;;;;;;13.40;2.05;;;21.40;81.20;;;;;;4978545;28;20039;-69
2022/05/14 08:55:05;;;;;;;9.15;1.95;;;21.30;81.60;;;;;;4979423;28;20037;-72
2022/05/14 08:57:56;;;;;;;11.13;2.03;;;21.40;80.40;;;;;;4976890;28;20038;-71
2022/05/14 09:00:22;;;;;;;12.13;2.03;;;21.30;80.40;;;;;;4976826;28;20070;-69
2022/05/14 09:02:51;;;;;;;9.43;2.15;;;21.30;79.80;;;;;;4976932;28;20038;-71
2022/05/14 09:05:20;;;;;;;17.70;2.63;;;21.30;80.30;;;;;;4973680;28;20058;-71
2022/05/14 09:07:46;;;;;;;11.60;2.13;;;21.30;79.30;;;;;;4976141;28;20585;-71
2022/05/14 09:10:23;;;;;;;9.77;1.58;;;21.20;78.30;;;;;;4978219;28;20042;-71
2022/05/14 09:12:54;;;;;;;14.57;2.58;;;21.20;80.00;;;;;;4971497;28;20042;-71
2022/05/14 09:15:22;;;;;;;7.63;2.42;;;21.30;79.70;;;;;;4978091;28;20039;-70
2022/05/14 09:18:01;;;;;;;6.97;1.90;;;21.40;81.00;;;;;;4977265;28;20504;-70
2022/05/14 09:20:26;;;;;;;15.68;2.10;;;21.60;81.20;;;;;;4977900;28;20875;-71
2022/05/14 09:22:55;;;;;;;11.02;2.15;;;21.70;78.70;;;;;;4981581;28;20038;-70
2022/05/14 09:25:34;;;;;;;10.43;2.75;;;21.70;79.90;;;;;;4979175;28;20039;-70
2022/05/14 09:28:03;;;;;;;10.90;2.85;;;21.80;78.80;;;;;;4979972;28;20034;-71
2022/05/14 09:30:42;;;;;;;14.75;2.80;;;21.80;78.50;;;;;;4975735;28;20153;-71
2022/05/14 09:33:28;;;;;;;12.30;1.90;;;21.80;79.50;;;;;;4981244;28;20042;-71
2022/05/14 09:35:57;;;;;;;12.43;1.95;;;21.70;77.90;;;;;;4977012;28;20078;-71
2022/05/14 09:38:23;;;;;;;10.00;2.05;;;21.70;79.10;;;;;;4979661;28;20466;-72
2022/05/14 09:40:50;;;;;;;7.45;1.85;;;21.80;80.90;;;;;;4980849;28;20079;-71
2022/05/14 09:43:16;;;;;;;10.63;1.77;;;21.80;80.00;;;;;;4981942;28;20034;-70
2022/05/14 09:45:55;;;;;;;9.40;2.13;;;21.70;80.50;;;;;;4977510;28;20049;-75
2022/05/14 09:48:28;;;;;;;16.65;3.28;;;21.70;79.10;;;;;;4970361;28;20077;-70
2022/05/14 09:51:00;;;;;;;14.10;2.00;;;21.90;80.40;;;;;;4986965;28;20117;-72
2022/05/14 09:53:28;;;;;;;10.95;2.50;;;21.90;79.60;;;;;;4987627;28;20030;-70
2022/05/14 09:56:09;;;;;;;11.80;2.97;;;22.10;79.00;;;;;;4987900;28;20038;-71
2022/05/14 09:58:42;;;;;;;15.70;2.33;;;22.10;79.40;;;;;;4987725;28;20049;-71
2022/05/14 10:01:19;;;;;;;11.50;2.35;;;22.40;78.90;;;;;;4988227;28;20118;-71
2022/05/14 10:04:28;;;;;;;13.88;2.95;;;22.50;78.10;;;;;;4986599;28;20054;-69
2022/05/14 10:07:03;;;;;;;11.55;2.40;;;22.80;78.50;;;;;;4966043;28;20035;-71
2022/05/14 10:09:41;;;;;;;11.65;2.15;;;23.20;76.70;;;;;;4979033;28;20046;-71
2022/05/14 10:12:26;;;;;;;5.43;1.67;;;23.50;76.70;;;;;;4975872;28;20398;-71
2022/05/14 10:15:16;;;;;;;15.45;2.67;;;23.70;76.60;;;;;;4970914;28;20034;-71
2022/05/14 10:17:49;;;;;;;7.20;1.98;;;23.90;76.80;;;;;;4970584;28;20499;-69
2022/05/14 10:20:26;;;;;;;8.82;1.90;;;24.00;75.00;;;;;;4977400;28;20034;-71
2022/05/14 10:29:30;;;;;;;7.05;1.80;;;23.50;74.10;;;;;;4974858;28;20022;-70
2022/05/14 10:32:03;;;;;;;8.20;2.20;;;23.50;75.80;;;;;;4973367;28;20034;-71
2022/05/14 10:35:02;;;;;;;10.10;2.08;;;23.40;74.70;;;;;;4978380;28;20037;-71
2022/05/14 10:37:48;;;;;;;11.68;2.40;;;23.20;74.50;;;;;;4978896;28;20045;-71
2022/05/14 10:40:35;;;;;;;11.07;2.20;;;23.10;74.70;;;;;;4977128;28;20564;-70
2022/05/14 10:43:35;;;;;;;11.80;2.38;;;23.00;74.90;;;;;;4973235;28;20422;-70
2022/05/14 10:46:06;;;;;;;9.73;2.00;;;22.90;76.10;;;;;;4972690;28;20642;-71
2022/05/14 10:48:46;;;;;;;11.95;1.88;;;22.40;75.30;;;;;;4979606;28;20049;-71
2022/05/14 10:51:28;;;;;;;12.45;2.47;;;22.50;77.30;;;;;;4973574;28;20034;-71
2022/05/14 10:53:54;;;;;;;12.68;2.35;;;22.70;75.70;;;;;;4973137;28;20039;-71
2022/05/14 10:56:34;;;;;;;12.27;2.90;;;22.70;75.80;;;;;;4973825;28;20069;-71
2022/05/14 10:59:00;;;;;;;15.15;2.90;;;22.70;74.70;;;;;;4978652;28;20049;-71
2022/05/14 11:01:52;;;;;;;20.92;2.33;;;22.60;75.40;;;;;;4976858;28;20646;-69
2022/05/14 11:04:24;;;;;;;12.15;2.47;;;22.30;76.50;;;;;;4971582;28;20030;-71
2022/05/14 11:06:55;;;;;;;10.95;1.77;;;22.10;76.20;;;;;;4973689;28;20031;-71
2022/05/14 11:09:39;;;;;;;13.25;2.65;;;22.10;77.50;;;;;;4979148;28;20049;-70
2022/05/14 11:12:27;;;;;;;10.60;2.72;;;22.40;76.70;;;;;;4977330;28;20161;-71
2022/05/14 11:14:58;;;;;;;14.40;2.20;;;22.40;76.40;;;;;;4974473;28;20117;-71
2022/05/14 11:17:27;;;;;;;12.05;3.10;;;22.60;77.80;;;;;;4970107;28;20499;-72
2022/05/14 11:20:05;;;;;;;14.07;2.40;;;22.80;75.50;;;;;;4974108;28;20053;-71
2022/05/14 11:22:50;;;;;;;8.85;2.20;;;22.70;74.10;;;;;;4969257;28;20042;-70
2022/05/14 11:25:26;;;;;;;10.20;2.13;;;22.50;75.80;;;;;;4969868;28;20069;-71
2022/05/14 11:28:16;;;;;;;14.68;2.78;;;22.30;76.50;;;;;;4974674;28;20499;-71
2022/05/14 11:30:54;;;;;;;11.60;2.75;;;22.20;78.10;;;;;;4972945;28;20035;-72
2022/05/14 11:33:32;;;;;;;12.93;3.35;;;22.30;78.10;;;;;;4976712;28;20037;-71
2022/05/14 11:36:12;;;;;;;12.70;2.38;;;22.40;77.60;;;;;;4978320;28;20146;-70
2022/05/14 11:38:47;;;;;;;11.90;2.83;;;22.30;76.70;;;;;;4972326;28;20035;-71
2022/05/14 11:41:35;;;;;;;13.50;2.38;;;22.20;77.10;;;;;;4976930;28;20038;-71
2022/05/14 11:44:04;;;;;;;11.57;2.08;;;22.10;76.50;;;;;;4974413;28;20035;-71
2022/05/14 11:46:48;;;;;;;14.52;2.42;;;22.00;76.60;;;;;;4973765;28;20388;-71
2022/05/14 11:49:33;;;;;;;11.48;2.05;;;21.90;77.30;;;;;;4981673;28;20037;-71
2022/05/14 11:52:17;;;;;;;12.10;2.55;;;21.80;76.90;;;;;;4968756;28;20031;-70
2022/05/14 11:55:04;;;;;;;13.23;2.60;;;21.60;76.90;;;;;;4971248;28;20046;-71
2022/05/14 11:57:36;;;;;;;14.23;1.65;;;21.70;77.50;;;;;;4972271;28;20498;-72
2022/05/14 12:00:10;;;;;;;10.30;2.30;;;21.90;76.00;;;;;;4976663;28;20077;-71
2022/05/14 12:02:48;;;;;;;13.88;2.13;;;22.10;76.70;;;;;;4975257;28;20034;-71
2022/05/14 12:05:22;;;;;;;11.55;2.08;;;22.20;77.10;;;;;;4974289;28;20101;-71
2022/05/14 12:07:56;;;;;;;11.38;1.92;;;22.50;79.00;;;;;;4977379;28;20049;-71
2022/05/14 12:10:46;;;;;;;8.75;3.03;;;22.80;77.60;;;;;;4977003;28;20042;-70
2022/05/14 12:13:34;;;;;;;10.77;2.20;;;23.20;77.00;;;;;;4974629;28;20042;-71
2022/05/14 12:16:00;;;;;;;6.53;1.85;;;23.50;76.30;;;;;;4976141;28;20031;-71
2022/05/14 12:18:28;;;;;;;8.02;2.42;;;23.60;76.00;;;;;;4978976;28;20038;-71
2022/05/14 12:21:03;;;;;;;9.20;2.03;;;23.80;74.70;;;;;;4975924;28;20506;-71
2022/05/14 12:23:46;;;;;;;17.52;3.47;;;23.90;75.70;;;;;;4978858;28;20038;-71
2022/05/14 12:26:25;;;;;;;12.13;3.05;;;23.70;74.30;;;;;;4977469;28;20026;-70
2022/05/14 12:28:53;;;;;;;7.40;1.98;;;23.60;74.80;;;;;;4978200;28;20042;-71
2022/05/14 12:34:19;;;;;;;10.25;2.85;;;23.50;74.90;;;;;;4971483;28;20117;-71
2022/05/14 12:36:54;;;;;;;12.95;2.45;;;23.40;75.10;;;;;;4975933;28;20047;-72
2022/05/14 12:39:23;;;;;;;7.10;2.38;;;23.50;75.50;;;;;;4975068;28;20130;-71
2022/05/14 12:41:59;;;;;;;15.88;2.30;;;23.40;75.70;;;;;;4970052;28;20046;-71
2022/05/14 12:44:30;;;;;;;14.18;2.53;;;23.50;74.50;;;;;;4974494;28;20052;-71
2022/05/14 12:46:58;;;;;;;10.20;2.60;;;23.60;74.90;;;;;;4978464;28;20030;-71
2022/05/14 12:49:58;;;;;;;11.02;1.90;;;23.60;73.80;;;;;;4985335;28;20046;-71
2022/05/14 12:52:32;;;;;;;15.38;3.05;;;23.60;74.10;;;;;;4981173;28;20521;-69
2022/05/14 12:55:12;;;;;;;14.10;3.22;;;23.40;73.80;;;;;;4978731;28;20398;-72
2022/05/14 12:57:39;;;;;;;10.10;2.08;;;23.30;74.40;;;;;;4974789;28;20517;-71
2022/05/14 13:00:07;;;;;;;8.95;2.08;;;23.00;74.70;;;;;;4979401;28;20122;-70
2022/05/14 13:03:08;;;;;;;7.82;2.20;;;23.10;75.50;;;;;;4975704;28;20038;-72
2022/05/14 13:05:40;;;;;;;10.15;2.67;;;23.10;73.90;;;;;;4972116;28;20030;-71
2022/05/14 13:08:15;;;;;;;11.90;2.63;;;23.10;73.20;;;;;;4977265;28;20058;-69
2022/05/14 13:10:47;;;;;;;14.27;2.40;;;23.00;72.40;;;;;;4979425;28;20122;-71
2022/05/14 13:13:14;;;;;;;14.60;2.70;;;22.70;73.90;;;;;;4975858;28;20092;-72
2022/05/14 13:15:52;;;;;;;8.77;1.90;;;22.60;76.10;;;;;;4975261;28;20046;-71
2022/05/14 13:18:28;;;;;;;12.98;2.42;;;22.50;75.40;;;;;;4978105;28;20038;-71